Time;durP1;ratioP1;P1;durP2;ratioP2;P2;SDS_P1;SDS_P2;PMS_P1;PMS_P2;Temp;Humidity;BMP_temperature;BMP_pressure;BME280_temperature;BME280_humidity;BME280_pressure;Samples;Min_cycle;Max_cycle;Signal;HPM_P1;HPM_P2
2023/05/23 00:02:14;;;;;;;;;;;;;;;28.38;25.24;97934.88;5085271;28;20286;-87
2023/05/23 00:04:41;;;;;;;;;;;;;;;28.18;25.34;97928.84;5072379;28;19923;-87
2023/05/23 00:07:07;;;;;;;;;;;;;;;28.20;25.35;97938.41;5073163;28;19920;-87
2023/05/23 00:09:33;;;;;;;;;;;;;;;28.27;25.00;97937.34;5074379;28;19916;-87
2023/05/23 00:11:59;;;;;;;;;;;;;;;28.29;25.00;97934.81;5075378;28;19916;-87
2023/05/23 00:14:25;;;;;;;;;;;;;;;27.87;25.68;97932.44;5064793;28;20049;-87
2023/05/23 00:16:51;;;;;;;;;;;;;;;27.80;25.81;97932.72;5081927;28;19952;-87
2023/05/23 00:19:17;;;;;;;;;;;;;;;27.84;25.69;97929.78;5069951;28;20442;-87
2023/05/23 00:21:48;;;;;;;;;;;;;;;27.87;25.56;97932.44;5078842;28;19946;-87
2023/05/23 00:24:17;;;;;;;;;;;;;;;27.79;25.67;97933.22;5080034;28;20303;-86
2023/05/23 00:26:44;;;;;;;;;;;;;;;27.77;25.69;97928.00;5068842;28;19947;-87
2023/05/23 00:29:15;;;;;;;;;;;;;;;27.66;25.89;97924.81;5068988;28;20011;-87
2023/05/23 00:31:45;;;;;;;;;;;;;;;27.51;26.35;97925.84;5074846;28;20020;-87
2023/05/23 00:34:16;;;;;;;;;;;;;;;27.42;26.04;97923.75;5062658;28;19921;-87
2023/05/23 00:36:42;;;;;;;;;;;;;;;27.25;26.49;97920.34;5071356;28;20009;-86
2023/05/23 00:39:08;;;;;;;;;;;;;;;27.44;26.19;97918.44;5072265;28;20015;-86
2023/05/23 00:41:37;;;;;;;;;;;;;;;27.39;26.20;97914.19;5074467;28;19960;-86
2023/05/23 00:44:04;;;;;;;;;;;;;;;27.24;26.42;97912.31;5072745;28;19924;-86
2023/05/23 00:46:31;;;;;;;;;;;;;;;27.35;26.53;97919.13;5072438;28;19956;-86
2023/05/23 00:48:57;;;;;;;;;;;;;;;27.54;25.57;97920.06;5068964;28;19972;-87
2023/05/23 00:51:23;;;;;;;;;;;;;;;27.27;25.98;97914.22;5093868;28;19923;-86
2023/05/23 00:53:49;;;;;;;;;;;;;;;26.99;26.16;97916.06;5077919;28;19925;-86
2023/05/23 00:56:15;;;;;;;;;;;;;;;26.79;26.79;97920.44;5091022;28;20037;-86
2023/05/23 00:58:41;;;;;;;;;;;;;;;26.88;26.75;97921.31;5086432;28;19928;-86
2023/05/23 01:01:08;;;;;;;;;;;;;;;27.00;26.49;97922.50;5078252;28;20015;-86
2023/05/23 01:03:35;;;;;;;;;;;;;;;27.23;25.86;97919.22;5092214;28;19924;-86
2023/05/23 01:06:01;;;;;;;;;;;;;;;27.42;25.50;97911.69;5066174;28;19962;-86
2023/05/23 01:08:28;;;;;;;;;;;;;;;27.17;25.88;97915.41;5085522;28;19977;-86
2023/05/23 01:10:56;;;;;;;;;;;;;;;26.86;26.47;97909.72;5067824;28;19921;-86
2023/05/23 01:13:24;;;;;;;;;;;;;;;26.91;26.62;97911.91;5074209;28;19973;-86
2023/05/23 01:15:57;;;;;;;;;;;;;;;26.31;27.57;97916.81;5071669;28;20295;-86
2023/05/23 01:18:23;;;;;;;;;;;;;;;26.06;27.69;97911.97;5069096;28;20007;-86
2023/05/23 01:20:54;;;;;;;;;;;;;;;26.00;27.97;97904.53;5069071;28;20265;-86
2023/05/23 01:23:20;;;;;;;;;;;;;;;26.12;27.80;97906.59;5068971;28;20007;-86
2023/05/23 01:25:52;;;;;;;;;;;;;;;26.34;27.50;97898.22;5077021;28;20002;-86
2023/05/23 01:28:19;;;;;;;;;;;;;;;26.74;26.85;97896.41;5067134;28;19928;-86
2023/05/23 01:30:45;;;;;;;;;;;;;;;26.77;26.92;97901.16;5082655;28;19921;-86
2023/05/23 01:33:13;;;;;;;;;;;;;;;26.65;27.26;97897.13;5087586;28;19920;-86
2023/05/23 01:35:39;;;;;;;;;;;;;;;26.81;26.88;97898.22;5073868;28;19974;-86
2023/05/23 01:38:05;;;;;;;;;;;;;;;26.80;26.87;97899.44;5078324;28;19936;-86
2023/05/23 01:40:31;;;;;;;;;;;;;;;26.78;27.01;97891.47;5064336;28;19934;-86
2023/05/23 01:42:57;;;;;;;;;;;;;;;26.86;26.82;97897.66;5090449;28;19924;-86
2023/05/23 01:45:25;;;;;;;;;;;;;;;26.91;26.96;97891.44;5080877;28;19927;-87
2023/05/23 01:47:52;;;;;;;;;;;;;;;26.82;27.40;97896.97;5076360;28;19920;-87
2023/05/23 01:50:18;;;;;;;;;;;;;;;26.77;27.26;97887.06;5076644;28;19929;-86
2023/05/23 01:52:45;;;;;;;;;;;;;;;26.71;27.53;97892.50;5076446;28;19929;-86
2023/05/23 01:55:13;;;;;;;;;;;;;;;26.93;26.85;97880.47;5073798;28;19916;-86
2023/05/23 01:57:39;;;;;;;;;;;;;;;27.04;26.40;97884.47;5068661;28;19966;-86
2023/05/23 02:00:06;;;;;;;;;;;;;;;27.00;26.45;97886.63;5071228;28;19928;-86
2023/05/23 02:02:32;;;;;;;;;;;;;;;27.06;26.49;97881.97;5069831;28;19921;-86
2023/05/23 02:04:59;;;;;;;;;;;;;;;26.87;26.36;97882.28;5065949;28;20395;-87
2023/05/23 02:07:25;;;;;;;;;;;;;;;26.74;26.71;97880.31;5071070;28;20260;-86
2023/05/23 02:09:51;;;;;;;;;;;;;;;26.93;26.61;97872.81;5071565;28;20384;-86
2023/05/23 02:12:17;;;;;;;;;;;;;;;27.04;26.37;97873.22;5063173;28;19928;-87
2023/05/23 02:14:43;;;;;;;;;;;;;;;27.12;26.14;97873.75;5064582;28;19931;-86
2023/05/23 02:17:09;;;;;;;;;;;;;;;27.13;26.20;97864.81;5068832;28;19921;-86
2023/05/23 02:19:36;;;;;;;;;;;;;;;27.13;26.75;97872.47;5070332;28;19920;-86
2023/05/23 02:22:02;;;;;;;;;;;;;;;27.19;26.62;97862.19;5065735;28;20364;-87
2023/05/23 02:24:28;;;;;;;;;;;;;;;27.14;26.41;97872.00;5079432;28;20292;-87
2023/05/23 02:26:54;;;;;;;;;;;;;;;27.20;26.23;97860.94;5071237;28;19924;-87
2023/05/23 02:29:20;;;;;;;;;;;;;;;27.10;26.33;97860.09;5054489;28;19935;-86
2023/05/23 02:31:46;;;;;;;;;;;;;;;26.88;26.71;97869.78;5069010;28;19935;-87
2023/05/23 02:34:12;;;;;;;;;;;;;;;27.00;26.70;97864.06;5069914;28;20407;-87
2023/05/23 02:36:39;;;;;;;;;;;;;;;27.06;26.38;97862.25;5069975;28;19974;-86
2023/05/23 02:39:05;;;;;;;;;;;;;;;27.10;26.08;97860.09;5073717;28;19921;-87
2023/05/23 02:41:31;;;;;;;;;;;;;;;27.23;25.88;97865.66;5075730;28;19921;-87
2023/05/23 02:43:57;;;;;;;;;;;;;;;26.90;26.11;97856.81;5074736;28;19925;-87
2023/05/23 02:46:23;;;;;;;;;;;;;;;26.89;26.46;97858.06;5078376;28;19939;-86
2023/05/23 02:48:50;;;;;;;;;;;;;;;27.07;26.03;97855.34;5056139;28;19917;-86
2023/05/23 02:51:16;;;;;;;;;;;;;;;26.96;26.63;97851.38;5066291;28;19920;-87
2023/05/23 02:53:42;;;;;;;;;;;;;;;27.01;26.65;97854.38;5082878;28;20015;-86
2023/05/23 02:56:08;;;;;;;;;;;;;;;27.06;25.92;97856.63;5070280;28;19920;-87
2023/05/23 02:58:34;;;;;;;;;;;;;;;27.15;26.53;97853.06;5076105;28;19924;-87
2023/05/23 03:01:01;;;;;;;;;;;;;;;27.24;26.39;97842.63;5074329;28;19928;-87
2023/05/23 03:03:27;;;;;;;;;;;;;;;27.34;25.96;97849.91;5074997;28;19921;-87
2023/05/23 03:05:53;;;;;;;;;;;;;;;27.32;25.91;97846.75;5076348;28;20471;-87
2023/05/23 03:08:19;;;;;;;;;;;;;;;27.08;26.45;97847.69;5081645;28;19923;-87
2023/05/23 03:10:45;;;;;;;;;;;;;;;27.09;26.06;97852.09;5074869;28;19927;-86
2023/05/23 03:13:12;;;;;;;;;;;;;;;27.17;26.28;97847.75;5075769;28;19916;-87
2023/05/23 03:15:37;;;;;;;;;;;;;;;27.26;26.51;97842.16;5073447;28;19920;-87
2023/05/23 03:18:04;;;;;;;;;;;;;;;27.48;26.00;97851.41;5073145;28;19927;-87
2023/05/23 03:20:30;;;;;;;;;;;;;;;27.67;25.86;97847.41;5071148;28;20099;-87
2023/05/23 03:22:56;;;;;;;;;;;;;;;27.84;25.35;97850.78;5064746;28;20343;-87
2023/05/23 03:25:22;;;;;;;;;;;;;;;27.95;25.43;97848.28;5073701;28;20399;-87
2023/05/23 03:27:48;;;;;;;;;;;;;;;28.15;25.21;97845.06;5074717;28;19917;-87
2023/05/23 03:30:14;;;;;;;;;;;;;;;28.11;25.05;97848.06;5057332;28;19931;-87
2023/05/23 03:32:41;;;;;;;;;;;;;;;28.06;25.33;97843.03;5074387;28;20010;-87
2023/05/23 03:35:07;;;;;;;;;;;;;;;28.06;25.37;97845.84;5071659;28;19924;-87
2023/05/23 03:37:33;;;;;;;;;;;;;;;28.25;25.58;97846.66;5076523;28;19920;-87
2023/05/23 03:39:59;;;;;;;;;;;;;;;28.66;25.76;97846.88;5072435;28;19943;-87
2023/05/23 03:42:26;;;;;;;;;;;;;;;28.93;25.56;97846.09;5071352;28;20376;-87
2023/05/23 03:44:52;;;;;;;;;;;;;;;29.08;25.68;97849.06;5071261;28;19927;-87
2023/05/23 03:47:18;;;;;;;;;;;;;;;29.26;25.06;97838.53;5071192;28;19924;-87
2023/05/23 03:49:45;;;;;;;;;;;;;;;29.07;25.34;97848.28;5069208;28;20375;-87
2023/05/23 03:52:11;;;;;;;;;;;;;;;29.04;25.42;97843.56;5080139;28;19927;-88
2023/05/23 03:54:37;;;;;;;;;;;;;;;29.16;25.58;97841.81;5072010;28;19977;-87
2023/05/23 03:57:03;;;;;;;;;;;;;;;29.38;26.10;97851.66;5077728;28;19963;-87
2023/05/23 03:59:29;;;;;;;;;;;;;;;29.77;26.06;97851.88;5071453;28;20319;-87
2023/05/23 04:01:57;;;;;;;;;;;;;;;30.08;24.91;97847.47;5077714;28;19920;-87
2023/05/23 04:04:25;;;;;;;;;;;;;;;30.15;25.36;97849.19;5074575;28;19916;-87
2023/05/23 04:06:51;;;;;;;;;;;;;;;29.98;25.36;97842.34;5069424;28;19936;-87
2023/05/23 04:09:17;;;;;;;;;;;;;;;29.99;25.69;97847.53;5074173;28;19927;-88
2023/05/23 04:11:43;;;;;;;;;;;;;;;29.96;26.31;97857.00;5072252;28;19931;-88
2023/05/23 04:14:09;;;;;;;;;;;;;;;30.26;25.56;97852.25;5074814;28;19920;-88
2023/05/23 04:16:36;;;;;;;;;;;;;;;30.40;26.37;97845.09;5072467;28;20407;-89
2023/05/23 04:19:03;;;;;;;;;;;;;;;30.76;26.28;97842.75;5065542;28;20376;-91
2023/05/23 04:21:29;;;;;;;;;;;;;;;31.13;25.83;97848.13;5073420;28;19932;-89
2023/05/23 04:23:56;;;;;;;;;;;;;;;31.31;26.35;97854.41;5080917;28;19924;-86
2023/05/23 04:26:22;;;;;;;;;;;;;;;31.65;26.05;97843.66;5077414;28;19928;-86
2023/05/23 04:28:48;;;;;;;;;;;;;;;31.92;25.52;97849.78;5068769;28;19931;-87
2023/05/23 04:31:14;;;;;;;;;;;;;;;32.12;25.79;97839.72;5074314;28;19920;-85
2023/05/23 04:33:41;;;;;;;;;;;;;;;32.33;26.04;97849.84;5074371;28;19926;-85
2023/05/23 04:36:08;;;;;;;;;;;;;;;32.55;25.40;97847.34;5080428;28;19924;-87
2023/05/23 04:38:34;;;;;;;;;;;;;;;32.75;25.86;97844.47;5072623;28;19927;-88
2023/05/23 04:41:00;;;;;;;;;;;;;;;32.86;26.06;97838.91;5070402;28;20003;-90
2023/05/23 04:43:28;;;;;;;;;;;;;;;32.86;25.30;97841.75;5073445;28;20298;-87
2023/05/23 04:45:54;;;;;;;;;;;;;;;33.01;24.59;97836.78;5074897;28;19947;-88
2023/05/23 04:48:20;;;;;;;;;;;;;;;32.61;26.34;97839.66;5081019;28;19960;-88
2023/05/23 04:50:47;;;;;;;;;;;;;;;32.80;26.67;97843.75;5073793;28;20723;-86
2023/05/23 04:53:13;;;;;;;;;;;;;;;32.87;26.13;97843.31;5071094;28;19924;-84
2023/05/23 04:55:39;;;;;;;;;;;;;;;32.90;26.77;97842.31;5084282;28;20429;-84
2023/05/23 04:58:06;;;;;;;;;;;;;;;33.23;26.04;97844.78;5080202;28;19924;-83
2023/05/23 05:00:33;;;;;;;;;;;;;;;33.50;25.72;97837.75;5069278;28;19921;-85
2023/05/23 05:02:59;;;;;;;;;;;;;;;33.71;25.91;97840.03;5070296;28;19921;-86
2023/05/23 05:05:25;;;;;;;;;;;;;;;33.95;26.14;97828.31;5066015;28;19973;-89
2023/05/23 05:07:51;;;;;;;;;;;;;;;34.11;26.78;97832.56;5068136;28;19920;-85
2023/05/23 05:10:17;;;;;;;;;;;;;;;34.26;25.63;97833.19;5068526;28;19924;-85
2023/05/23 05:12:45;;;;;;;;;;;;;;;34.35;25.23;97832.97;5082570;28;19920;-84
2023/05/23 05:15:12;;;;;;;;;;;;;;;34.22;25.17;97836.25;5092023;28;19916;-84
2023/05/23 05:17:38;;;;;;;;;;;;;;;33.92;24.39;97843.56;5093652;28;19923;-85
2023/05/23 05:20:07;;;;;;;;;;;;;;;33.67;24.65;97841.56;5079728;28;19921;-85
2023/05/23 05:22:34;;;;;;;;;;;;;;;33.53;25.63;97842.47;5078406;28;19967;-85
2023/05/23 05:25:01;;;;;;;;;;;;;;;33.58;27.63;97836.06;5092543;28;19962;-85
2023/05/23 05:27:27;;;;;;;;;;;;;;;34.06;26.58;97823.50;5074137;28;20307;-85
2023/05/23 05:29:57;;;;;;;;;;;;;;;34.36;27.23;97823.91;5092287;28;20281;-84
2023/05/23 05:32:23;;;;;;;;;;;;;;;34.64;26.19;97833.38;5054860;28;20011;-85
2023/05/23 05:34:49;;;;;;;;;;;;;;;34.53;25.40;97826.88;5060911;28;19952;-85
2023/05/23 05:37:15;;;;;;;;;;;;;;;34.24;25.28;97836.53;5080382;28;19939;-85
2023/05/23 05:39:41;;;;;;;;;;;;;;;34.21;26.47;97831.88;5093386;28;19970;-85
2023/05/23 05:42:07;;;;;;;;;;;;;;;34.66;25.63;97825.09;5093589;28;19924;-84
2023/05/23 05:44:33;;;;;;;;;;;;;;;34.85;26.20;97822.56;5073384;28;20467;-85
2023/05/23 05:46:59;;;;;;;;;;;;;;;35.00;26.86;97822.34;5073427;28;19916;-85
2023/05/23 05:49:25;;;;;;;;;;;;;;;35.19;26.64;97829.16;5073200;28;19924;-85
2023/05/23 05:51:51;;;;;;;;;;;;;;;35.26;26.16;97825.81;5071531;28;20323;-84
2023/05/23 05:54:17;;;;;;;;;;;;;;;35.40;26.03;97821.94;5072485;28;19996;-85
2023/05/23 05:56:43;;;;;;;;;;;;;;;35.51;25.05;97819.09;5073315;28;20396;-85
2023/05/23 05:59:09;;;;;;;;;;;;;;;35.59;26.05;97814.44;5073660;28;19925;-85
2023/05/23 06:01:36;;;;;;;;;;;;;;;35.51;24.82;97816.25;5073226;28;19924;-85
2023/05/23 06:04:02;;;;;;;;;;;;;;;35.54;21.85;97808.72;5073239;28;19922;-84
2023/05/23 06:06:28;;;;;;;;;;;;;;;35.51;23.55;97815.47;5072581;28;19920;-85
2023/05/23 06:08:54;;;;;;;;;;;;;;;35.65;22.05;97806.63;5073916;28;20023;-84
2023/05/23 06:11:20;;;;;;;;;;;;;;;35.76;22.17;97798.03;5060084;28;19971;-85
2023/05/23 06:13:46;;;;;;;;;;;;;;;35.74;21.56;97800.66;5057145;28;20521;-85
2023/05/23 06:16:13;;;;;;;;;;;;;;;35.65;22.48;97798.06;5066685;28;19921;-84
2023/05/23 06:18:40;;;;;;;;;;;;;;;35.71;21.57;97789.50;5080462;28;19920;-85
2023/05/23 06:21:06;;;;;;;;;;;;;;;35.57;20.93;97796.25;5079644;28;19923;-84
2023/05/23 06:23:32;;;;;;;;;;;;;;;35.56;20.96;97794.69;5088795;28;19975;-85
2023/05/23 06:25:58;;;;;;;;;;;;;;;35.59;21.10;97800.16;5055403;28;19920;-85
2023/05/23 06:28:24;;;;;;;;;;;;;;;35.40;20.53;97802.69;5057370;28;19960;-85
2023/05/23 06:30:50;;;;;;;;;;;;;;;35.26;22.01;97797.25;5056518;28;20007;-85
2023/05/23 06:33:16;;;;;;;;;;;;;;;35.39;21.94;97803.22;5056930;28;19917;-85
2023/05/23 06:35:42;;;;;;;;;;;;;;;35.55;21.86;97799.63;5072147;28;20033;-84
2023/05/23 06:38:08;;;;;;;;;;;;;;;35.71;21.37;97800.94;5075809;28;20029;-85
2023/05/23 06:40:34;;;;;;;;;;;;;;;35.82;21.32;97798.03;5076453;28;20018;-85
2023/05/23 06:43:00;;;;;;;;;;;;;;;35.87;21.14;97800.88;5076451;28;19939;-85
2023/05/23 06:45:26;;;;;;;;;;;;;;;35.98;20.84;97795.19;5067137;28;20400;-84
2023/05/23 06:47:52;;;;;;;;;;;;;;;35.95;20.22;97789.69;5056578;28;19924;-85
2023/05/23 06:50:19;;;;;;;;;;;;;;;35.78;21.09;97789.72;5056399;28;20402;-85
2023/05/23 06:52:45;;;;;;;;;;;;;;;35.88;21.77;97791.00;5057444;28;19917;-85
2023/05/23 06:55:16;;;;;;;;;;;;;;;36.08;21.21;97792.03;5075126;28;19948;-85
2023/05/23 06:57:43;;;;;;;;;;;;;;;36.21;20.41;97784.47;5076133;28;19917;-85
2023/05/23 07:00:10;;;;;;;;;;;;;;;36.16;20.79;97778.75;5076622;28;19920;-85
2023/05/23 07:02:36;;;;;;;;;;;;;;;35.63;20.77;97777.03;5066089;28;19917;-85
2023/05/23 07:05:02;;;;;;;;;;;;;;;34.88;21.64;97775.91;5055782;28;20311;-85
2023/05/23 07:07:28;;;;;;;;;;;;;;;35.05;21.90;97771.03;5055997;28;19972;-84
2023/05/23 07:09:54;;;;;;;;;;;;;;;35.27;21.26;97775.97;5055764;28;19916;-85
2023/05/23 07:12:20;;;;;;;;;;;;;;;35.13;21.36;97771.28;5065696;28;20003;-84
2023/05/23 07:14:46;;;;;;;;;;;;;;;35.35;20.66;97774.16;5075877;28;19917;-85
2023/05/23 07:17:12;;;;;;;;;;;;;;;35.28;21.10;97772.59;5075824;28;19923;-84
2023/05/23 07:19:38;;;;;;;;;;;;;;;35.17;21.45;97771.81;5064474;28;20391;-85
2023/05/23 07:22:04;;;;;;;;;;;;;;;35.29;22.01;97774.16;5055349;28;20287;-85
2023/05/23 07:24:30;;;;;;;;;;;;;;;35.45;21.83;97774.69;5065833;28;20433;-85
2023/05/23 07:26:56;;;;;;;;;;;;;;;35.81;20.69;97773.63;5075633;28;20121;-86
2023/05/23 07:29:22;;;;;;;;;;;;;;;34.96;22.57;97773.31;5075332;28;19934;-85
2023/05/23 07:31:48;;;;;;;;;;;;;;;34.56;23.85;97775.31;5075521;28;20027;-85
2023/05/23 07:34:14;;;;;;;;;;;;;;;35.05;23.35;97771.03;5075253;28;19916;-86
2023/05/23 07:36:41;;;;;;;;;;;;;;;34.57;23.65;97770.34;5064495;28;19958;-85
2023/05/23 07:39:07;;;;;;;;;;;;;;;33.82;24.04;97768.91;5071875;28;19921;-85
2023/05/23 07:41:33;;;;;;;;;;;;;;;34.01;23.99;97767.22;5075256;28;19916;-86
2023/05/23 07:43:59;;;;;;;;;;;;;;;34.13;24.99;97756.69;5075334;28;19917;-86
2023/05/23 07:46:25;;;;;;;;;;;;;;;34.10;23.99;97756.94;5075421;28;19916;-86
2023/05/23 07:48:51;;;;;;;;;;;;;;;33.95;25.12;97765.63;5074954;28;19917;-86
2023/05/23 07:51:20;;;;;;;;;;;;;;;33.71;24.66;97768.06;5075370;28;19973;-86
2023/05/23 07:53:46;;;;;;;;;;;;;;;33.04;27.01;97769.56;5077639;28;19924;-86
2023/05/23 07:56:12;;;;;;;;;;;;;;;32.17;26.43;97768.00;5097434;28;20285;-85
2023/05/23 07:58:38;;;;;;;;;;;;;;;31.75;26.36;97771.28;5095711;28;20045;-85
2023/05/23 08:01:04;;;;;;;;;;;;;;;32.69;26.45;97770.50;5095214;28;19923;-85
2023/05/23 08:03:30;;;;;;;;;;;;;;;31.83;27.32;97764.72;5095164;28;20276;-85
2023/05/23 08:05:56;;;;;;;;;;;;;;;33.09;25.29;97771.69;5095065;28;19966;-85
2023/05/23 08:08:22;;;;;;;;;;;;;;;33.22;26.37;97767.16;5095116;28;20020;-86
2023/05/23 08:10:48;;;;;;;;;;;;;;;32.78;25.45;97772.38;5068915;28;20039;-85
2023/05/23 08:13:15;;;;;;;;;;;;;;;33.53;24.73;97772.09;5054822;28;19964;-86
2023/05/23 08:15:41;;;;;;;;;;;;;;;33.11;25.24;97780.50;5074631;28;19955;-85
2023/05/23 08:18:07;;;;;;;;;;;;;;;31.30;29.85;97773.38;5074308;28;19928;-86
2023/05/23 08:20:33;;;;;;;;;;;;;;;32.14;27.22;97769.03;5074662;28;19952;-85
2023/05/23 08:23:02;;;;;;;;;;;;;;;31.78;29.34;97767.44;5057581;28;20288;-85
2023/05/23 08:25:31;;;;;;;;;;;;;;;31.57;25.64;97771.53;5074334;28;19921;-85
2023/05/23 08:27:57;;;;;;;;;;;;;;;33.21;24.38;97770.50;5074439;28;19932;-85
2023/05/23 08:30:24;;;;;;;;;;;;;;;33.48;24.96;97775.63;5074146;28;19920;-85
2023/05/23 08:32:51;;;;;;;;;;;;;;;34.01;24.18;97774.97;5074151;28;19969;-85
2023/05/23 08:35:18;;;;;;;;;;;;;;;34.34;24.14;97769.47;5090151;28;19924;-86
2023/05/23 08:37:46;;;;;;;;;;;;;;;32.53;26.73;97776.78;5089594;28;19916;-85
2023/05/23 08:40:17;;;;;;;;;;;;;;;32.75;24.73;97767.69;5074092;28;19924;-85
2023/05/23 08:42:43;;;;;;;;;;;;;;;32.73;26.81;97775.94;5074129;28;19920;-85
2023/05/23 08:45:10;;;;;;;;;;;;;;;32.76;24.76;97763.56;5059123;28;20273;-86
2023/05/23 08:47:37;;;;;;;;;;;;;;;33.88;25.09;97768.94;5061675;28;20419;-86
2023/05/23 08:50:05;;;;;;;;;;;;;;;34.55;22.91;97756.63;5073916;28;19924;-86
2023/05/23 08:52:32;;;;;;;;;;;;;;;34.81;22.37;97759.28;5072014;28;20338;-85
2023/05/23 08:54:59;;;;;;;;;;;;;;;34.97;24.22;97763.44;5053938;28;20272;-85
2023/05/23 08:57:26;;;;;;;;;;;;;;;34.60;23.02;97767.28;5068057;28;19921;-86
2023/05/23 08:59:52;;;;;;;;;;;;;;;34.86;21.83;97757.72;5074288;28;20236;-85
2023/05/23 09:02:18;;;;;;;;;;;;;;;34.83;21.79;97755.91;5057681;28;19912;-85
2023/05/23 09:04:45;;;;;;;;;;;;;;;35.25;22.09;97753.66;5053826;28;20372;-85
2023/05/23 09:07:11;;;;;;;;;;;;;;;35.02;21.59;97754.16;5054058;28;19913;-86
2023/05/23 09:09:37;;;;;;;;;;;;;;;34.80;22.69;97752.00;5074426;28;19928;-86
2023/05/23 09:12:04;;;;;;;;;;;;;;;34.86;24.52;97752.81;5093009;28;19920;-86
2023/05/23 09:14:31;;;;;;;;;;;;;;;34.27;24.15;97758.56;5093934;28;20280;-86
2023/05/23 09:17:01;;;;;;;;;;;;;;;33.85;22.61;97750.03;5076072;28;19920;-87
2023/05/23 09:19:27;;;;;;;;;;;;;;;34.59;20.94;97757.13;5056285;28;19924;-86
2023/05/23 09:21:53;;;;;;;;;;;;;;;34.95;20.16;97755.41;5059838;28;20291;-86
2023/05/23 09:24:20;;;;;;;;;;;;;;;34.29;21.72;97750.28;5077255;28;19983;-87
2023/05/23 09:26:47;;;;;;;;;;;;;;;33.81;24.33;97746.63;5073659;28;19963;-86
2023/05/23 09:29:13;;;;;;;;;;;;;;;34.10;21.97;97746.28;5073204;28;20401;-86
2023/05/23 09:31:39;;;;;;;;;;;;;;;33.37;22.29;97745.00;5073859;28;19927;-86
2023/05/23 09:34:05;;;;;;;;;;;;;;;34.10;22.83;97745.53;5075833;28;19920;-86
2023/05/23 09:36:33;;;;;;;;;;;;;;;34.86;22.58;97744.25;5062050;28;19920;-86
2023/05/23 09:39:04;;;;;;;;;;;;;;;35.30;20.13;97744.31;5078034;28;20360;-86
2023/05/23 09:41:32;;;;;;;;;;;;;;;34.72;22.46;97728.94;5073414;28;19939;-86
2023/05/23 09:44:03;;;;;;;;;;;;;;;33.96;21.70;97736.63;5071800;28;19920;-86
2023/05/23 09:46:29;;;;;;;;;;;;;;;34.28;23.45;97731.63;5076137;28;19916;-86
2023/05/23 09:48:55;;;;;;;;;;;;;;;33.91;20.11;97733.75;5077550;28;19939;-86
2023/05/23 09:51:22;;;;;;;;;;;;;;;34.55;22.57;97738.72;5082711;28;19963;-86
2023/05/23 09:53:49;;;;;;;;;;;;;;;35.16;21.83;97733.13;5057548;28;19917;-86
2023/05/23 09:56:15;;;;;;;;;;;;;;;35.60;18.31;97726.66;5057403;28;19917;-87
2023/05/23 09:58:48;;;;;;;;;;;;;;;35.43;20.33;97735.97;5057431;28;19925;-86
2023/05/23 10:01:15;;;;;;;;;;;;;;;35.09;19.98;97727.94;5057266;28;19917;-87
2023/05/23 10:03:47;;;;;;;;;;;;;;;34.97;21.38;97734.91;5067458;28;19921;-86
2023/05/23 10:06:18;;;;;;;;;;;;;;;35.03;21.39;97735.75;5079264;28;19924;-85
2023/05/23 10:08:49;;;;;;;;;;;;;;;35.59;18.45;97734.47;5086703;28;19931;-85
2023/05/23 10:11:15;;;;;;;;;;;;;;;36.12;18.47;97726.78;5072792;28;19920;-86
2023/05/23 10:13:45;;;;;;;;;;;;;;;36.23;21.80;97721.81;5097412;28;19917;-86
2023/05/23 10:16:19;;;;;;;;;;;;;;;35.28;19.05;97721.22;5086087;28;20298;-86
2023/05/23 10:18:51;;;;;;;;;;;;;;;35.99;18.73;97715.91;5072072;28;19917;-86
2023/05/23 10:21:19;;;;;;;;;;;;;;;36.32;18.53;97709.28;5056922;28;20384;-86
2023/05/23 10:23:46;;;;;;;;;;;;;;;36.14;18.46;97713.53;5056774;28;20023;-86
2023/05/23 10:26:12;;;;;;;;;;;;;;;35.92;21.69;97720.06;5057421;28;19924;-87
2023/05/23 10:28:39;;;;;;;;;;;;;;;35.10;18.97;97712.41;5056401;28;20424;-86
2023/05/23 10:31:06;;;;;;;;;;;;;;;35.97;19.21;97713.59;5056562;28;19962;-86
2023/05/23 10:33:35;;;;;;;;;;;;;;;36.61;18.19;97708.66;5056654;28;20376;-86
2023/05/23 10:36:07;;;;;;;;;;;;;;;37.16;18.49;97702.53;5074262;28;19927;-86
2023/05/23 10:38:37;;;;;;;;;;;;;;;37.11;18.87;97699.75;5080567;28;19920;-86
2023/05/23 10:41:12;;;;;;;;;;;;;;;36.39;21.69;97700.16;5084253;28;19921;-87
2023/05/23 10:43:56;;;;;;;;;;;;;;;36.52;19.82;97686.88;5065225;28;19952;-85
2023/05/23 10:46:22;;;;;;;;;;;;;;;35.70;20.92;97693.66;5056559;28;20304;-85
2023/05/23 10:48:52;;;;;;;;;;;;;;;35.86;18.56;97689.97;5064707;28;19927;-85
2023/05/23 10:51:20;;;;;;;;;;;;;;;34.49;20.97;97695.91;5094825;28;19930;-85
2023/05/23 10:53:52;;;;;;;;;;;;;;;35.76;20.13;97685.81;5076424;28;19927;-85
2023/05/23 10:56:22;;;;;;;;;;;;;;;36.82;18.90;97691.84;5075929;28;19932;-85
2023/05/23 10:58:52;;;;;;;;;;;;;;;36.51;18.26;97690.22;5074189;28;19928;-86
2023/05/23 11:01:18;;;;;;;;;;;;;;;35.52;18.40;97668.50;5091605;28;19920;-85
2023/05/23 11:03:44;;;;;;;;;;;;;;;34.70;24.36;97676.53;5096445;28;19945;-86
2023/05/23 11:06:31;;;;;;;;;;;;;;;34.89;19.16;97665.41;5096432;28;19916;-85
2023/05/23 11:09:17;;;;;;;;;;;;;;;34.45;22.45;97672.56;5095878;28;19954;-85
2023/05/23 11:12:04;;;;;;;;;;;;;;;34.03;20.02;97672.69;5096250;28;19917;-85
2023/05/23 11:14:50;;;;;;;;;;;;;;;35.55;18.83;97662.50;5095862;28;20016;-85
2023/05/23 11:17:17;;;;;;;;;;;;;;;36.77;18.72;97664.06;5067829;28;19917;-85
2023/05/23 11:19:54;;;;;;;;;;;;;;;35.03;22.45;97653.72;5055711;28;19917;-85
2023/05/23 11:22:21;;;;;;;;;;;;;;;34.95;20.47;97657.59;5055685;28;19917;-86
2023/05/23 11:24:49;;;;;;;;;;;;;;;34.93;18.42;97645.94;5055823;28;20023;-86
2023/05/23 11:27:18;;;;;;;;;;;;;;;34.20;20.33;97647.88;5055786;28;19917;-86
2023/05/23 11:29:55;;;;;;;;;;;;;;;33.86;23.75;97640.50;5059439;28;20303;-86
2023/05/23 11:32:22;;;;;;;;;;;;;;;34.37;20.37;97651.56;5087059;28;19921;-86
2023/05/23 11:34:48;;;;;;;;;;;;;;;35.82;19.28;97635.16;5063257;28;19917;-85
2023/05/23 11:37:14;;;;;;;;;;;;;;;36.48;19.13;97639.81;5055542;28;20390;-85
2023/05/23 11:39:40;;;;;;;;;;;;;;;35.73;18.85;97627.66;5055529;28;19936;-85
2023/05/23 11:42:06;;;;;;;;;;;;;;;35.14;19.97;97625.19;5055133;28;20368;-86
2023/05/23 11:44:32;;;;;;;;;;;;;;;34.96;19.92;97631.41;5055682;28;20074;-86
2023/05/23 11:47:01;;;;;;;;;;;;;;;36.06;18.84;97623.91;5068558;28;20381;-86
2023/05/23 11:49:28;;;;;;;;;;;;;;;36.00;18.05;97626.81;5075064;28;19931;-85
2023/05/23 11:51:54;;;;;;;;;;;;;;;36.29;20.72;97628.22;5073655;28;19920;-85
2023/05/23 11:54:24;;;;;;;;;;;;;;;35.41;19.09;97630.06;5074877;28;19916;-85
2023/05/23 11:56:51;;;;;;;;;;;;;;;35.40;21.01;97634.22;5075139;28;19924;-86
2023/05/23 11:59:17;;;;;;;;;;;;;;;35.68;19.14;97631.34;5075043;28;19925;-86
2023/05/23 12:01:43;;;;;;;;;;;;;;;35.83;21.46;97634.63;5085002;28;20002;-86
2023/05/23 12:04:12;;;;;;;;;;;;;;;36.03;19.62;97639.28;5095349;28;20394;-86
2023/05/23 12:06:40;;;;;;;;;;;;;;;36.69;20.37;97638.88;5095216;28;20000;-86
2023/05/23 12:09:06;;;;;;;;;;;;;;;36.73;18.40;97636.53;5075876;28;20414;-86
2023/05/23 12:11:34;;;;;;;;;;;;;;;35.53;18.81;97633.72;5078591;28;19931;-85
2023/05/23 12:14:01;;;;;;;;;;;;;;;35.55;19.30;97636.03;5080150;28;19951;-86
2023/05/23 12:16:28;;;;;;;;;;;;;;;35.84;22.25;97635.41;5067667;28;19955;-86
2023/05/23 12:18:55;;;;;;;;;;;;;;;36.96;20.10;97634.28;5054710;28;19916;-86
2023/05/23 12:21:24;;;;;;;;;;;;;;;37.77;18.29;97626.69;5054662;28;19970;-86
2023/05/23 12:23:50;;;;;;;;;;;;;;;38.34;18.91;97617.63;5054480;28;19916;-86
2023/05/23 12:26:16;;;;;;;;;;;;;;;38.14;17.18;97623.88;5067906;28;20441;-86
2023/05/23 12:28:46;;;;;;;;;;;;;;;37.96;19.39;97613.19;5074693;28;20330;-86
2023/05/23 12:31:20;;;;;;;;;;;;;;;38.40;21.81;97612.59;5074576;28;20002;-86
2023/05/23 12:33:47;;;;;;;;;;;;;;;37.19;23.52;97626.25;5074355;28;19920;-86
2023/05/23 12:36:13;;;;;;;;;;;;;;;36.53;19.38;97619.75;5073957;28;19928;-86
2023/05/23 12:38:43;;;;;;;;;;;;;;;36.13;21.52;97623.34;5074032;28;19923;-86
2023/05/23 12:41:10;;;;;;;;;;;;;;;36.63;20.43;97628.78;5074283;28;19938;-86
2023/05/23 12:43:37;;;;;;;;;;;;;;;36.62;20.72;97621.50;5055679;28;19917;-86
2023/05/23 12:46:03;;;;;;;;;;;;;;;36.65;21.60;97621.22;5054238;28;20385;-86
2023/05/23 12:48:29;;;;;;;;;;;;;;;38.00;22.12;97622.25;5058326;28;20396;-84